sensor_id;sensor_type;location;lat;lon;timestamp;pressure;altitude;pressure_sealevel;temperature;humidity
66196;BME280;53000;45.182;5.736;2023-05-19T00:01:43;99431.31;;;15.78;63.16
66196;BME280;53000;45.182;5.736;2023-05-19T00:04:09;99430.28;;;15.79;63.45
66196;BME280;53000;45.182;5.736;2023-05-19T00:06:36;99432.78;;;15.81;63.38
66196;BME280;53000;45.182;5.736;2023-05-19T00:09:04;99430.28;;;15.79;63.58
66196;BME280;53000;45.182;5.736;2023-05-19T00:11:30;99430.28;;;15.79;63.48
66196;BME280;53000;45.182;5.736;2023-05-19T00:13:58;99430.66;;;15.76;63.52
66196;BME280;53000;45.182;5.736;2023-05-19T00:16:25;99427.53;;;15.72;63.47
66196;BME280;53000;45.182;5.736;2023-05-19T00:18:50;99433.31;;;15.69;63.07
66196;BME280;53000;45.182;5.736;2023-05-19T00:21:17;99424.50;;;15.67;63.25
66196;BME280;53000;45.182;5.736;2023-05-19T00:23:43;99424.91;;;15.64;63.08
66196;BME280;53000;45.182;5.736;2023-05-19T00:26:09;99430.13;;;15.66;63.08
66196;BME280;53000;45.182;5.736;2023-05-19T00:28:35;99421.75;;;15.67;63.01
66196;BME280;53000;45.182;5.736;2023-05-19T00:31:00;99422.59;;;15.68;62.93
66196;BME280;53000;45.182;5.736;2023-05-19T00:33:26;99423.00;;;15.65;62.32
66196;BME280;53000;45.182;5.736;2023-05-19T00:35:52;99416.25;;;15.61;62.53
66196;BME280;53000;45.182;5.736;2023-05-19T00:38:17;99423.81;;;15.59;62.56
66196;BME280;53000;45.182;5.736;2023-05-19T00:40:43;99418.16;;;15.60;62.22
66196;BME280;53000;45.182;5.736;2023-05-19T00:43:08;99419.19;;;15.59;62.20
66196;BME280;53000;45.182;5.736;2023-05-19T00:45:34;99413.94;;;15.58;62.16
66196;BME280;53000;45.182;5.736;2023-05-19T00:47:59;99409.69;;;15.55;62.14
66196;BME280;53000;45.182;5.736;2023-05-19T00:50:25;99412.84;;;15.52;61.83
66196;BME280;53000;45.182;5.736;2023-05-19T00:52:53;99408.41;;;15.51;61.91
66196;BME280;53000;45.182;5.736;2023-05-19T00:55:21;99409.66;;;15.48;62.43
66196;BME280;53000;45.182;5.736;2023-05-19T00:57:48;99413.63;;;15.46;62.18
66196;BME280;53000;45.182;5.736;2023-05-19T01:00:14;99409.59;;;15.42;62.32
66196;BME280;53000;45.182;5.736;2023-05-19T01:02:40;99406.19;;;15.33;62.29
66196;BME280;53000;45.182;5.736;2023-05-19T01:05:07;99408.22;;;15.24;62.93
66196;BME280;53000;45.182;5.736;2023-05-19T01:07:32;99401.47;;;15.20;63.10
66196;BME280;53000;45.182;5.736;2023-05-19T01:09:58;99399.97;;;15.18;62.97
66196;BME280;53000;45.182;5.736;2023-05-19T01:12:24;99396.41;;;15.17;62.84
66196;BME280;53000;45.182;5.736;2023-05-19T01:14:50;99401.66;;;15.19;62.55
66196;BME280;53000;45.182;5.736;2023-05-19T01:17:26;99398.72;;;15.20;62.83
66196;BME280;53000;45.182;5.736;2023-05-19T01:20:02;99394.34;;;15.19;63.14
66196;BME280;53000;45.182;5.736;2023-05-19T01:29:15;99393.41;;;15.12;62.91
66196;BME280;53000;45.182;5.736;2023-05-19T01:31:47;99393.63;;;15.10;62.86
66196;BME280;53000;45.182;5.736;2023-05-19T01:34:16;99390.25;;;15.08;63.08
66196;BME280;53000;45.182;5.736;2023-05-19T01:36:43;99389.38;;;15.08;62.98
66196;BME280;53000;45.182;5.736;2023-05-19T01:39:12;99390.44;;;15.07;63.04
66196;BME280;53000;45.182;5.736;2023-05-19T01:41:40;99388.97;;;15.04;63.54
66196;BME280;53000;45.182;5.736;2023-05-19T01:44:07;99386.59;;;15.01;63.42
66196;BME280;53000;45.182;5.736;2023-05-19T01:46:32;99389.75;;;14.98;63.37
66196;BME280;53000;45.182;5.736;2023-05-19T01:48:58;99388.25;;;14.96;63.50
66196;BME280;53000;45.182;5.736;2023-05-19T01:51:24;99387.19;;;14.97;63.72
66196;BME280;53000;45.182;5.736;2023-05-19T01:53:49;99389.28;;;14.95;63.60
66196;BME280;53000;45.182;5.736;2023-05-19T01:56:19;99391.34;;;14.92;64.25
66196;BME280;53000;45.182;5.736;2023-05-19T01:58:55;99386.31;;;14.89;64.44
66196;BME280;53000;45.182;5.736;2023-05-19T02:01:37;99395.91;;;14.85;64.27
66196;BME280;53000;45.182;5.736;2023-05-19T02:04:42;99381.63;;;14.83;64.29
66196;BME280;53000;45.182;5.736;2023-05-19T02:07:16;99393.75;;;14.81;64.00
66196;BME280;53000;45.182;5.736;2023-05-19T02:10:03;99394.78;;;14.80;64.12
66196;BME280;53000;45.182;5.736;2023-05-19T02:12:35;99384.94;;;14.79;64.28
66196;BME280;53000;45.182;5.736;2023-05-19T02:17:28;99381.38;;;14.78;64.35
66196;BME280;53000;45.182;5.736;2023-05-19T02:19:57;99376.94;;;14.77;64.48
66196;BME280;53000;45.182;5.736;2023-05-19T02:22:23;99383.22;;;14.78;64.82
66196;BME280;53000;45.182;5.736;2023-05-19T02:24:48;99384.09;;;14.78;64.48
66196;BME280;53000;45.182;5.736;2023-05-19T02:27:15;99377.78;;;14.78;64.64
66196;BME280;53000;45.182;5.736;2023-05-19T02:29:41;99383.22;;;14.78;64.44
66196;BME280;53000;45.182;5.736;2023-05-19T02:32:06;99380.72;;;14.76;64.76
66196;BME280;53000;45.182;5.736;2023-05-19T02:34:32;99384.47;;;14.75;64.42
66196;BME280;53000;45.182;5.736;2023-05-19T02:36:57;99386.72;;;14.71;64.74
66196;BME280;53000;45.182;5.736;2023-05-19T02:39:23;99384.22;;;14.70;64.57
66196;BME280;53000;45.182;5.736;2023-05-19T02:41:48;99387.97;;;14.69;64.40
66196;BME280;53000;45.182;5.736;2023-05-19T02:44:13;99384.41;;;14.68;64.68
66196;BME280;53000;45.182;5.736;2023-05-19T02:46:39;99381.69;;;14.68;64.90
66196;BME280;53000;45.182;5.736;2023-05-19T02:49:05;99375.41;;;14.68;65.36
66196;BME280;53000;45.182;5.736;2023-05-19T02:51:30;99376.34;;;14.60;65.67
66196;BME280;53000;45.182;5.736;2023-05-19T02:53:56;99372.88;;;14.51;66.09
66196;BME280;53000;45.182;5.736;2023-05-19T02:56:21;99371.56;;;14.47;65.55
66196;BME280;53000;45.182;5.736;2023-05-19T02:58:46;99371.56;;;14.47;65.51
66196;BME280;53000;45.182;5.736;2023-05-19T03:01:12;99373.28;;;14.48;65.93
66196;BME280;53000;45.182;5.736;2023-05-19T03:03:37;99365.94;;;14.49;65.34
66196;BME280;53000;45.182;5.736;2023-05-19T03:06:03;99368.25;;;14.52;65.36
66196;BME280;53000;45.182;5.736;2023-05-19T03:08:28;99373.38;;;14.55;65.62
66196;BME280;53000;45.182;5.736;2023-05-19T03:10:54;99361.63;;;14.55;65.62
66196;BME280;53000;45.182;5.736;2023-05-19T03:13:19;99369.78;;;14.55;65.64
66196;BME280;53000;45.182;5.736;2023-05-19T03:15:45;99366.03;;;14.56;65.38
66196;BME280;53000;45.182;5.736;2023-05-19T03:18:10;99369.78;;;14.55;65.25
66196;BME280;53000;45.182;5.736;2023-05-19T03:20:38;99358.41;;;14.51;65.09
66196;BME280;53000;45.182;5.736;2023-05-19T03:23:03;99363.22;;;14.49;65.60
66196;BME280;53000;45.182;5.736;2023-05-19T03:25:29;99364.56;;;14.38;65.66
66196;BME280;53000;45.182;5.736;2023-05-19T03:27:54;99360.72;;;14.32;65.59
66196;BME280;53000;45.182;5.736;2023-05-19T03:30:20;99360.72;;;14.32;66.08
66196;BME280;53000;45.182;5.736;2023-05-19T03:32:45;99361.56;;;14.33;66.55
66196;BME280;53000;45.182;5.736;2023-05-19T03:35:10;99371.59;;;14.32;66.08
66196;BME280;53000;45.182;5.736;2023-05-19T03:37:36;99368.22;;;14.30;66.40
66196;BME280;53000;45.182;5.736;2023-05-19T03:40:01;99361.94;;;14.30;65.58
66196;BME280;53000;45.182;5.736;2023-05-19T03:42:26;99361.75;;;14.31;66.39
66196;BME280;53000;45.182;5.736;2023-05-19T03:44:52;99366.16;;;14.32;66.47
66196;BME280;53000;45.182;5.736;2023-05-19T03:47:17;99360.72;;;14.32;66.09
66196;BME280;53000;45.182;5.736;2023-05-19T03:49:42;99357.16;;;14.32;66.18
66196;BME280;53000;45.182;5.736;2023-05-19T03:52:08;99358.56;;;14.28;66.13
66196;BME280;53000;45.182;5.736;2023-05-19T03:54:34;99365.25;;;14.25;65.78
66196;BME280;53000;45.182;5.736;2023-05-19T03:57:00;99369.22;;;14.23;65.97
66196;BME280;53000;45.182;5.736;2023-05-19T03:59:26;99368.56;;;14.21;65.82
66196;BME280;53000;45.182;5.736;2023-05-19T04:01:52;99370.63;;;14.19;66.02
66196;BME280;53000;45.182;5.736;2023-05-19T04:04:17;99372.28;;;14.20;65.97
66196;BME280;53000;45.182;5.736;2023-05-19T04:06:42;99377.75;;;14.20;66.23
66196;BME280;53000;45.182;5.736;2023-05-19T04:09:12;99368.25;;;14.16;66.36
66196;BME280;53000;45.182;5.736;2023-05-19T04:11:38;99376.44;;;14.16;66.82
66196;BME280;53000;45.182;5.736;2023-05-19T04:14:04;99365.94;;;14.13;66.44
66196;BME280;53000;45.182;5.736;2023-05-19T04:16:30;99371.19;;;14.14;66.47
66196;BME280;53000;45.182;5.736;2023-05-19T04:18:56;99364.88;;;14.14;66.66
66196;BME280;53000;45.182;5.736;2023-05-19T04:21:21;99368.09;;;14.17;66.61
66196;BME280;53000;45.182;5.736;2023-05-19T04:23:47;99365.34;;;14.17;66.57
66196;BME280;53000;45.182;5.736;2023-05-19T04:26:12;99366.41;;;14.16;66.76
66196;BME280;53000;45.182;5.736;2023-05-19T04:28:39;99371.19;;;14.14;65.90
66196;BME280;53000;45.182;5.736;2023-05-19T04:31:06;99373.69;;;14.16;66.27
66196;BME280;53000;45.182;5.736;2023-05-19T04:33:35;99369.31;;;14.15;66.60
66196;BME280;53000;45.182;5.736;2023-05-19T04:36:01;99368.47;;;14.14;66.74
66196;BME280;53000;45.182;5.736;2023-05-19T04:38:29;99365.94;;;14.13;66.29
66196;BME280;53000;45.182;5.736;2023-05-19T04:40:55;99371.38;;;14.13;66.79
66196;BME280;53000;45.182;5.736;2023-05-19T04:43:20;99366.78;;;14.13;66.70
66196;BME280;53000;45.182;5.736;2023-05-19T04:45:46;99364.88;;;14.14;66.94
66196;BME280;53000;45.182;5.736;2023-05-19T04:48:14;99369.50;;;14.13;66.83
66196;BME280;53000;45.182;5.736;2023-05-19T04:50:39;99372.41;;;14.11;66.73
66196;BME280;53000;45.182;5.736;2023-05-19T04:53:06;99371.75;;;14.09;66.74
66196;BME280;53000;45.182;5.736;2023-05-19T04:55:31;99375.97;;;14.12;66.81
66196;BME280;53000;45.182;5.736;2023-05-19T04:57:56;99379.72;;;14.11;66.83
66196;BME280;53000;45.182;5.736;2023-05-19T05:00:22;99381.78;;;14.09;66.65
66196;BME280;53000;45.182;5.736;2023-05-19T05:02:47;99380.78;;;14.10;66.51
66196;BME280;53000;45.182;5.736;2023-05-19T05:05:13;99382.44;;;14.11;66.67
66196;BME280;53000;45.182;5.736;2023-05-19T05:07:39;99376.16;;;14.10;67.06
66196;BME280;53000;45.182;5.736;2023-05-19T05:10:05;99376.34;;;14.09;66.89
66196;BME280;53000;45.182;5.736;2023-05-19T05:12:31;99382.63;;;14.09;67.37
66196;BME280;53000;45.182;5.736;2023-05-19T05:14:56;99387.22;;;14.09;66.99
66196;BME280;53000;45.182;5.736;2023-05-19T05:17:22;99390.16;;;14.07;66.97
66196;BME280;53000;45.182;5.736;2023-05-19T05:19:49;99380.47;;;14.05;66.70
66196;BME280;53000;45.182;5.736;2023-05-19T05:22:15;99384.25;;;14.04;67.36
66196;BME280;53000;45.182;5.736;2023-05-19T05:24:41;99378.41;;;14.07;66.83
66196;BME280;53000;45.182;5.736;2023-05-19T05:27:06;99374.69;;;14.08;67.07
66196;BME280;53000;45.182;5.736;2023-05-19T05:29:32;99378.88;;;14.10;67.28
66196;BME280;53000;45.182;5.736;2023-05-19T05:31:58;99371.56;;;14.11;67.42
66196;BME280;53000;45.182;5.736;2023-05-19T05:34:23;99378.31;;;14.15;67.02
66196;BME280;53000;45.182;5.736;2023-05-19T05:36:48;99379.81;;;14.18;67.04
66196;BME280;53000;45.182;5.736;2023-05-19T05:39:14;99384.59;;;14.16;67.83
66196;BME280;53000;45.182;5.736;2023-05-19T05:41:39;99382.44;;;14.11;67.52
66196;BME280;53000;45.182;5.736;2023-05-19T05:44:04;99373.25;;;14.12;67.10
66196;BME280;53000;45.182;5.736;2023-05-19T05:46:31;99370.16;;;14.15;67.52
66196;BME280;53000;45.182;5.736;2023-05-19T05:48:56;99370.41;;;14.20;67.00
66196;BME280;53000;45.182;5.736;2023-05-19T05:51:22;99374.44;;;14.24;66.85
66196;BME280;53000;45.182;5.736;2023-05-19T05:53:51;99365.91;;;14.27;67.05
66196;BME280;53000;45.182;5.736;2023-05-19T05:56:17;99373.97;;;14.36;67.17
66196;BME280;53000;45.182;5.736;2023-05-19T05:58:42;99368.13;;;14.39;66.22
66196;BME280;53000;45.182;5.736;2023-05-19T06:01:08;99366.72;;;14.43;67.17
66196;BME280;53000;45.182;5.736;2023-05-19T06:03:35;99371.38;;;14.49;66.58
66196;BME280;53000;45.182;5.736;2023-05-19T06:06:02;99375.69;;;14.58;66.52
66196;BME280;53000;45.182;5.736;2023-05-19T06:08:27;99373.25;;;14.63;66.21
66196;BME280;53000;45.182;5.736;2023-05-19T06:10:52;99368.91;;;14.69;66.28
66196;BME280;53000;45.182;5.736;2023-05-19T06:13:18;99369.72;;;14.69;66.38
66196;BME280;53000;45.182;5.736;2023-05-19T06:15:46;99362.63;;;14.68;66.01
66196;BME280;53000;45.182;5.736;2023-05-19T06:18:11;99363.25;;;14.70;66.19
66196;BME280;53000;45.182;5.736;2023-05-19T06:20:37;99364.38;;;14.76;66.00
66196;BME280;53000;45.182;5.736;2023-05-19T06:23:02;99366.28;;;14.82;65.90
66196;BME280;53000;45.182;5.736;2023-05-19T06:25:27;99364.69;;;14.88;65.88
66196;BME280;53000;45.182;5.736;2023-05-19T06:27:53;99359.28;;;14.95;65.66
66196;BME280;53000;45.182;5.736;2023-05-19T06:30:18;99359.56;;;15.00;65.18
66196;BME280;53000;45.182;5.736;2023-05-19T06:32:43;99362.53;;;15.05;65.44
66196;BME280;53000;45.182;5.736;2023-05-19T06:35:10;99361.28;;;15.07;65.31
66196;BME280;53000;45.182;5.736;2023-05-19T06:37:35;99356.69;;;15.08;64.94
66196;BME280;53000;45.182;5.736;2023-05-19T06:40:00;99359.69;;;15.13;65.35
66196;BME280;53000;45.182;5.736;2023-05-19T06:42:26;99354.66;;;15.17;65.04
66196;BME280;53000;45.182;5.736;2023-05-19T06:44:52;99359.47;;;15.15;65.39
66196;BME280;53000;45.182;5.736;2023-05-19T06:47:17;99361.16;;;15.16;65.17
66196;BME280;53000;45.182;5.736;2023-05-19T06:49:46;99352.00;;;15.23;65.44
66196;BME280;53000;45.182;5.736;2023-05-19T06:52:15;99358.16;;;15.32;64.97
66196;BME280;53000;45.182;5.736;2023-05-19T06:54:40;99353.38;;;15.41;65.06
66196;BME280;53000;45.182;5.736;2023-05-19T06:57:05;99344.00;;;15.50;64.58
66196;BME280;53000;45.182;5.736;2023-05-19T06:59:31;99349.31;;;15.58;65.22
66196;BME280;53000;45.182;5.736;2023-05-19T07:01:56;99349.34;;;15.65;64.78
66196;BME280;53000;45.182;5.736;2023-05-19T07:04:22;99341.88;;;15.73;64.50
66196;BME280;53000;45.182;5.736;2023-05-19T07:06:47;99344.25;;;15.83;64.19
66196;BME280;53000;45.182;5.736;2023-05-19T07:09:14;99347.63;;;15.92;64.16
66196;BME280;53000;45.182;5.736;2023-05-19T07:11:39;99342.44;;;16.04;63.97
66196;BME280;53000;45.182;5.736;2023-05-19T07:14:05;99344.16;;;16.11;63.37
66196;BME280;53000;45.182;5.736;2023-05-19T07:16:30;99348.56;;;16.19;63.20
66196;BME280;53000;45.182;5.736;2023-05-19T07:18:55;99338.53;;;16.26;63.36
66196;BME280;53000;45.182;5.736;2023-05-19T07:21:21;99348.44;;;16.41;62.82
66196;BME280;53000;45.182;5.736;2023-05-19T07:23:46;99354.34;;;16.51;62.25
66196;BME280;53000;45.182;5.736;2023-05-19T07:26:11;99346.41;;;16.69;62.39
66196;BME280;53000;45.182;5.736;2023-05-19T07:28:37;99345.41;;;16.84;62.15
66196;BME280;53000;45.182;5.736;2023-05-19T07:31:02;99338.28;;;16.96;61.40
66196;BME280;53000;45.182;5.736;2023-05-19T07:33:28;99339.97;;;17.10;60.62
66196;BME280;53000;45.182;5.736;2023-05-19T07:35:53;99337.84;;;17.26;60.67
66196;BME280;53000;45.182;5.736;2023-05-19T07:38:18;99328.16;;;17.43;59.85
66196;BME280;53000;45.182;5.736;2023-05-19T07:40:44;99328.72;;;17.78;59.62
66196;BME280;53000;45.182;5.736;2023-05-19T07:43:09;99335.69;;;19.03;58.22
66196;BME280;53000;45.182;5.736;2023-05-19T07:45:36;99335.16;;;20.67;55.37
66196;BME280;53000;45.182;5.736;2023-05-19T07:48:01;99328.28;;;21.54;52.92
66196;BME280;53000;45.182;5.736;2023-05-19T07:50:27;99325.81;;;22.45;49.75
66196;BME280;53000;45.182;5.736;2023-05-19T07:52:52;99325.38;;;23.11;48.04
66196;BME280;53000;45.182;5.736;2023-05-19T07:55:17;99321.59;;;23.51;48.29
66196;BME280;53000;45.182;5.736;2023-05-19T07:57:43;99323.50;;;24.28;46.32
66196;BME280;53000;45.182;5.736;2023-05-19T08:00:09;99322.88;;;24.48;44.98
66196;BME280;53000;45.182;5.736;2023-05-19T08:02:36;99314.44;;;24.11;44.24
66196;BME280;53000;45.182;5.736;2023-05-19T08:05:02;99312.03;;;23.58;42.54
66196;BME280;53000;45.182;5.736;2023-05-19T08:07:27;99311.88;;;22.97;47.38
66196;BME280;53000;45.182;5.736;2023-05-19T08:09:52;99303.25;;;22.48;45.64
66196;BME280;53000;45.182;5.736;2023-05-19T08:12:18;99311.28;;;22.09;46.84
66196;BME280;53000;45.182;5.736;2023-05-19T08:14:43;99313.59;;;21.89;48.54
66196;BME280;53000;45.182;5.736;2023-05-19T08:17:08;99307.56;;;21.51;46.84
66196;BME280;53000;45.182;5.736;2023-05-19T08:19:34;99314.81;;;21.10;48.05
66196;BME280;53000;45.182;5.736;2023-05-19T08:21:59;99314.84;;;20.68;47.36
66196;BME280;53000;45.182;5.736;2023-05-19T08:24:26;99308.63;;;20.42;48.49
66196;BME280;53000;45.182;5.736;2023-05-19T08:26:54;99302.00;;;20.32;48.96
66196;BME280;53000;45.182;5.736;2023-05-19T08:29:19;99295.84;;;20.18;49.55
66196;BME280;53000;45.182;5.736;2023-05-19T08:31:45;99297.22;;;20.09;50.15
66196;BME280;53000;45.182;5.736;2023-05-19T08:34:10;99299.06;;;19.96;50.74
66196;BME280;53000;45.182;5.736;2023-05-19T08:36:36;99283.75;;;19.89;49.76
66196;BME280;53000;45.182;5.736;2023-05-19T08:39:01;99292.44;;;19.86;50.66
66196;BME280;53000;45.182;5.736;2023-05-19T08:41:27;99292.06;;;19.82;50.77
66196;BME280;53000;45.182;5.736;2023-05-19T08:43:53;99288.03;;;19.85;50.24
66196;BME280;53000;45.182;5.736;2023-05-19T08:46:20;99292.06;;;19.82;51.05
66196;BME280;53000;45.182;5.736;2023-05-19T08:48:46;99289.69;;;19.86;50.75
66196;BME280;53000;45.182;5.736;2023-05-19T08:53:49;99286.50;;;19.89;50.85
66196;BME280;53000;45.182;5.736;2023-05-19T08:56:22;99282.66;;;19.90;50.67
66196;BME280;53000;45.182;5.736;2023-05-19T08:58:49;99287.81;;;19.86;50.46
66196;BME280;53000;45.182;5.736;2023-05-19T09:01:16;99278.97;;;19.84;50.73
66196;BME280;53000;45.182;5.736;2023-05-19T09:03:45;99288.47;;;19.81;49.60
66196;BME280;53000;45.182;5.736;2023-05-19T09:06:11;99281.19;;;19.75;50.96
66196;BME280;53000;45.182;5.736;2023-05-19T09:08:37;99280.78;;;19.72;50.94
66196;BME280;53000;45.182;5.736;2023-05-19T09:11:03;99273.16;;;19.74;51.46
66196;BME280;53000;45.182;5.736;2023-05-19T09:13:28;99274.81;;;19.75;50.40
66196;BME280;53000;45.182;5.736;2023-05-19T09:15:56;99279.09;;;19.71;51.55
66196;BME280;53000;45.182;5.736;2023-05-19T09:18:23;99272.19;;;19.61;51.21
66196;BME280;53000;45.182;5.736;2023-05-19T09:20:48;99268.84;;;19.59;51.40
66196;BME280;53000;45.182;5.736;2023-05-19T09:23:15;99274.81;;;19.56;50.92
66196;BME280;53000;45.182;5.736;2023-05-19T09:25:48;99269.94;;;19.58;50.63
66196;BME280;53000;45.182;5.736;2023-05-19T09:28:14;99263.69;;;19.70;51.70
66196;BME280;53000;45.182;5.736;2023-05-19T09:30:46;99269.72;;;19.78;51.14
66196;BME280;53000;45.182;5.736;2023-05-19T09:33:18;99265.44;;;19.83;50.65
66196;BME280;53000;45.182;5.736;2023-05-19T09:35:46;99274.22;;;19.91;51.00
66196;BME280;53000;45.182;5.736;2023-05-19T09:38:17;99264.72;;;20.06;49.57
66196;BME280;53000;45.182;5.736;2023-05-19T09:40:42;99270.34;;;20.29;50.81
66196;BME280;53000;45.182;5.736;2023-05-19T09:43:08;99264.84;;;20.59;49.53
66196;BME280;53000;45.182;5.736;2023-05-19T09:45:34;99264.06;;;20.82;49.86
66196;BME280;53000;45.182;5.736;2023-05-19T09:48:02;99255.44;;;21.02;48.73
66196;BME280;53000;45.182;5.736;2023-05-19T09:50:28;99261.47;;;21.23;48.71
66196;BME280;53000;45.182;5.736;2023-05-19T09:52:55;99255.25;;;21.51;48.42
66196;BME280;53000;45.182;5.736;2023-05-19T09:55:24;99252.66;;;21.73;46.67
66196;BME280;53000;45.182;5.736;2023-05-19T09:57:53;99254.31;;;21.74;46.48
66196;BME280;53000;45.182;5.736;2023-05-19T10:00:20;99251.19;;;21.82;45.89
66196;BME280;53000;45.182;5.736;2023-05-19T10:02:47;99256.56;;;21.89;45.29
66196;BME280;53000;45.182;5.736;2023-05-19T10:05:17;99251.91;;;21.90;47.03
66196;BME280;53000;45.182;5.736;2023-05-19T10:07:49;99240.63;;;21.91;47.26
66196;BME280;53000;45.182;5.736;2023-05-19T10:10:15;99245.66;;;21.94;45.69
66196;BME280;53000;45.182;5.736;2023-05-19T10:12:41;99242.66;;;21.96;47.49
66196;BME280;53000;45.182;5.736;2023-05-19T10:15:13;99248.16;;;21.96;46.89
66196;BME280;53000;45.182;5.736;2023-05-19T10:17:40;99250.34;;;21.94;44.69
66196;BME280;53000;45.182;5.736;2023-05-19T10:20:15;99252.16;;;21.88;46.83
66196;BME280;53000;45.182;5.736;2023-05-19T10:22:44;99236.81;;;21.80;46.49
66196;BME280;53000;45.182;5.736;2023-05-19T10:25:11;99245.47;;;21.84;44.75
66196;BME280;53000;45.182;5.736;2023-05-19T10:28:03;99248.31;;;21.89;46.61
66196;BME280;53000;45.182;5.736;2023-05-19T10:30:33;99241.97;;;21.89;46.68
66196;BME280;53000;45.182;5.736;2023-05-19T10:33:00;99239.34;;;21.82;46.58
66196;BME280;53000;45.182;5.736;2023-05-19T10:38:33;99244.63;;;21.72;44.19
66196;BME280;53000;45.182;5.736;2023-05-19T10:41:15;99239.03;;;21.55;43.92
66196;BME280;53000;45.182;5.736;2023-05-19T10:46:13;99231.38;;;21.33;45.08
66196;BME280;53000;45.182;5.736;2023-05-19T10:48:43;99234.25;;;21.27;45.57
66196;BME280;53000;45.182;5.736;2023-05-19T10:51:08;99231.19;;;21.23;45.73
66196;BME280;53000;45.182;5.736;2023-05-19T10:53:40;99235.47;;;21.19;44.71
66196;BME280;53000;45.182;5.736;2023-05-19T10:56:05;99230.06;;;21.12;44.52
66196;BME280;53000;45.182;5.736;2023-05-19T10:58:47;99226.75;;;21.10;45.34
66196;BME280;53000;45.182;5.736;2023-05-19T11:01:17;99222.31;;;21.09;44.35
66196;BME280;53000;45.182;5.736;2023-05-19T11:06:20;99219.44;;;21.04;44.99
66196;BME280;53000;45.182;5.736;2023-05-19T11:08:46;99223.03;;;21.04;45.96
66196;BME280;53000;45.182;5.736;2023-05-19T11:11:16;99217.03;;;21.08;45.10
66196;BME280;53000;45.182;5.736;2023-05-19T11:13:54;99211.31;;;21.09;44.94
66196;BME280;53000;45.182;5.736;2023-05-19T11:16:27;99213.22;;;21.09;43.25
66196;BME280;53000;45.182;5.736;2023-05-19T11:18:54;99210.69;;;21.07;44.46
66196;BME280;53000;45.182;5.736;2023-05-19T11:21:20;99206.28;;;21.06;44.80
66196;BME280;53000;45.182;5.736;2023-05-19T11:23:45;99215.13;;;21.08;43.93
66196;BME280;53000;45.182;5.736;2023-05-19T11:26:11;99211.19;;;21.04;44.68
66196;BME280;53000;45.182;5.736;2023-05-19T11:28:37;99215.72;;;20.98;44.59
66196;BME280;53000;45.182;5.736;2023-05-19T11:31:04;99210.22;;;20.98;44.67
66196;BME280;53000;45.182;5.736;2023-05-19T11:33:32;99209.16;;;20.99;44.85
66196;BME280;53000;45.182;5.736;2023-05-19T11:35:58;99207.25;;;21.00;44.86
66196;BME280;53000;45.182;5.736;2023-05-19T11:38:23;99201.47;;;21.01;45.03
66196;BME280;53000;45.182;5.736;2023-05-19T11:40:52;99206.75;;;21.03;44.90
66196;BME280;53000;45.182;5.736;2023-05-19T11:43:18;99200.66;;;21.01;44.23
66196;BME280;53000;45.182;5.736;2023-05-19T11:45:44;99195.41;;;20.99;44.90
66196;BME280;53000;45.182;5.736;2023-05-19T11:48:13;99192.06;;;20.97;44.51
66196;BME280;53000;45.182;5.736;2023-05-19T11:50:40;99190.25;;;20.91;44.59
66196;BME280;53000;45.182;5.736;2023-05-19T11:53:06;99195.63;;;20.86;44.35
66196;BME280;53000;45.182;5.736;2023-05-19T11:55:32;99193.72;;;20.87;45.10
66196;BME280;53000;45.182;5.736;2023-05-19T12:00:29;99186.53;;;20.86;45.22
66196;BME280;53000;45.182;5.736;2023-05-19T12:03:01;99191.44;;;20.83;45.56
66196;BME280;53000;45.182;5.736;2023-05-19T12:05:26;99190.59;;;20.83;45.79
66196;BME280;53000;45.182;5.736;2023-05-19T12:07:53;99191.56;;;20.77;45.33
66196;BME280;53000;45.182;5.736;2023-05-19T12:10:26;99196.09;;;20.71;46.05
66196;BME280;53000;45.182;5.736;2023-05-19T12:12:53;99187.50;;;20.68;45.52
66196;BME280;53000;45.182;5.736;2023-05-19T12:15:23;99187.22;;;20.69;46.11
66196;BME280;53000;45.182;5.736;2023-05-19T12:18:00;99188.94;;;20.70;45.99
66196;BME280;53000;45.182;5.736;2023-05-19T12:20:27;99180.91;;;20.69;46.13
66196;BME280;53000;45.182;5.736;2023-05-19T12:22:55;99181.50;;;20.71;45.64
66196;BME280;53000;45.182;5.736;2023-05-19T12:25:21;99179.94;;;20.75;46.01
66196;BME280;53000;45.182;5.736;2023-05-19T12:27:47;99177.69;;;20.83;46.39
66196;BME280;53000;45.182;5.736;2023-05-19T12:30:15;99180.91;;;20.92;45.96
66196;BME280;53000;45.182;5.736;2023-05-19T12:32:41;99176.38;;;20.98;45.72
66196;BME280;53000;45.182;5.736;2023-05-19T12:35:07;99169.66;;;21.06;45.15
66196;BME280;53000;45.182;5.736;2023-05-19T12:37:32;99172.78;;;21.09;45.27
66196;BME280;53000;45.182;5.736;2023-05-19T12:39:59;99171.22;;;21.13;45.30
66196;BME280;53000;45.182;5.736;2023-05-19T12:42:26;99172.63;;;21.16;45.49
66196;BME280;53000;45.182;5.736;2023-05-19T12:44:57;99168.47;;;21.13;45.37
66196;BME280;53000;45.182;5.736;2023-05-19T12:47:28;99163.91;;;21.07;45.70
66196;BME280;53000;45.182;5.736;2023-05-19T12:49:55;99170.84;;;21.10;45.12
66196;BME280;53000;45.182;5.736;2023-05-19T12:52:24;99165.22;;;21.16;44.79
66196;BME280;53000;45.182;5.736;2023-05-19T12:54:59;99165.09;;;21.23;45.46
66196;BME280;53000;45.182;5.736;2023-05-19T12:57:26;99165.69;;;21.25;45.43
66196;BME280;53000;45.182;5.736;2023-05-19T13:00:01;99154.44;;;21.27;45.42
66196;BME280;53000;45.182;5.736;2023-05-19T13:02:26;99150.25;;;21.24;44.77
66196;BME280;53000;45.182;5.736;2023-05-19T13:04:51;99157.31;;;21.20;44.65
66196;BME280;53000;45.182;5.736;2023-05-19T13:07:19;99156.50;;;21.19;44.79
66196;BME280;53000;45.182;5.736;2023-05-19T13:09:44;99148.47;;;21.18;44.56
66196;BME280;53000;45.182;5.736;2023-05-19T13:12:10;99156.63;;;21.13;44.82
66196;BME280;53000;45.182;5.736;2023-05-19T13:14:35;99152.69;;;21.09;44.41
66196;BME280;53000;45.182;5.736;2023-05-19T13:17:01;99153.13;;;21.06;45.08
66196;BME280;53000;45.182;5.736;2023-05-19T13:19:27;99144.66;;;21.07;44.17
66196;BME280;53000;45.182;5.736;2023-05-19T13:21:53;99138.41;;;21.12;44.78